CheckWX is a tool to help pilots better visualize weather data.  It is not intended as a substitute for an official pre-flight weather briefing.

17:40:04 UTC

LEBG TAF
Burgos Airport
Burgos, Spain
TAF LEBG 241400Z 2415/2424 04012KT CAVOK PROB30 TEMPO 2415/2420 04015G25KT

Mar-24@
15:00 UTC

Mar-24 @ 15:00 UTC

Mar-25@
00:00 UTC

Mar-25 @ 00:00 UTC

TAF LEBG 241400Z 2415/2424 04012KT CAVOK
Wind
  • 040° at 12 KTS
Conditions
No significant weather
Cloud Levels
  • No significant clouds

Mar-24@
15:00 UTC

Mar-24 @ 15:00 UTC

Mar-24@
20:00 UTC

Mar-24 @ 20:00 UTC

PROB30 TEMPO 2415/2420 04015G25KT

Temporary - 30% Likelihood

Temporary - 30% Likelihood during this time.

Wind
  • 040° at 15 KTS
  • {Gusting to 25 KTS